sensor_id;sensor_type;location;lat;lon;timestamp;P1;durP1;ratioP1;P2;durP2;ratioP2
1412;SDS011;701;52.526;13.408;2023-03-04T00:01:46;37.72;;;14.40;;
1412;SDS011;701;52.526;13.408;2023-03-04T00:04:12;37.05;;;14.48;;
1412;SDS011;701;52.526;13.408;2023-03-04T00:06:38;36.13;;;14.70;;
1412;SDS011;701;52.526;13.408;2023-03-04T00:09:03;39.72;;;16.02;;
1412;SDS011;701;52.526;13.408;2023-03-04T00:11:30;36.58;;;15.25;;
1412;SDS011;701;52.526;13.408;2023-03-04T00:13:56;42.07;;;15.60;;
1412;SDS011;701;52.526;13.408;2023-03-04T00:16:23;37.05;;;13.93;;
1412;SDS011;701;52.526;13.408;2023-03-04T00:18:55;40.13;;;15.35;;
1412;SDS011;701;52.526;13.408;2023-03-04T00:21:22;40.83;;;15.75;;
1412;SDS011;701;52.526;13.408;2023-03-04T00:23:48;37.70;;;14.67;;
1412;SDS011;701;52.526;13.408;2023-03-04T00:26:15;35.00;;;14.50;;
1412;SDS011;701;52.526;13.408;2023-03-04T00:28:42;39.55;;;14.93;;
1412;SDS011;701;52.526;13.408;2023-03-04T00:31:08;39.42;;;14.25;;
1412;SDS011;701;52.526;13.408;2023-03-04T00:33:34;38.97;;;14.32;;
1412;SDS011;701;52.526;13.408;2023-03-04T00:36:00;38.60;;;14.30;;
1412;SDS011;701;52.526;13.408;2023-03-04T00:38:26;35.90;;;13.93;;
1412;SDS011;701;52.526;13.408;2023-03-04T00:40:53;43.97;;;13.55;;
1412;SDS011;701;52.526;13.408;2023-03-04T00:43:19;35.50;;;13.63;;
1412;SDS011;701;52.526;13.408;2023-03-04T00:45:45;31.73;;;13.38;;
1412;SDS011;701;52.526;13.408;2023-03-04T00:48:12;38.83;;;13.38;;
1412;SDS011;701;52.526;13.408;2023-03-04T00:50:39;34.33;;;12.48;;
1412;SDS011;701;52.526;13.408;2023-03-04T00:53:04;34.10;;;13.07;;
1412;SDS011;701;52.526;13.408;2023-03-04T00:55:30;37.00;;;13.38;;
1412;SDS011;701;52.526;13.408;2023-03-04T00:57:56;30.87;;;12.20;;
1412;SDS011;701;52.526;13.408;2023-03-04T01:00:21;39.75;;;11.23;;
1412;SDS011;701;52.526;13.408;2023-03-04T01:02:49;33.90;;;11.40;;
1412;SDS011;701;52.526;13.408;2023-03-04T01:05:14;34.78;;;11.73;;
1412;SDS011;701;52.526;13.408;2023-03-04T01:07:40;33.05;;;11.77;;
1412;SDS011;701;52.526;13.408;2023-03-04T01:10:07;28.70;;;10.80;;
1412;SDS011;701;52.526;13.408;2023-03-04T01:12:35;35.10;;;10.60;;
1412;SDS011;701;52.526;13.408;2023-03-04T01:15:00;29.43;;;11.37;;
1412;SDS011;701;52.526;13.408;2023-03-04T01:17:26;30.52;;;10.35;;
1412;SDS011;701;52.526;13.408;2023-03-04T01:19:52;30.47;;;10.87;;
1412;SDS011;701;52.526;13.408;2023-03-04T01:22:18;38.05;;;11.10;;
1412;SDS011;701;52.526;13.408;2023-03-04T01:24:46;41.75;;;10.63;;
1412;SDS011;701;52.526;13.408;2023-03-04T01:27:12;33.83;;;9.43;;
1412;SDS011;701;52.526;13.408;2023-03-04T01:29:37;36.30;;;10.37;;
1412;SDS011;701;52.526;13.408;2023-03-04T01:32:03;33.60;;;9.18;;
1412;SDS011;701;52.526;13.408;2023-03-04T01:34:29;29.05;;;9.63;;
1412;SDS011;701;52.526;13.408;2023-03-04T01:36:55;26.40;;;9.03;;
1412;SDS011;701;52.526;13.408;2023-03-04T01:39:21;23.90;;;7.75;;
1412;SDS011;701;52.526;13.408;2023-03-04T01:41:49;25.63;;;8.60;;
1412;SDS011;701;52.526;13.408;2023-03-04T01:44:15;23.83;;;8.53;;
1412;SDS011;701;52.526;13.408;2023-03-04T01:46:43;25.67;;;8.20;;
1412;SDS011;701;52.526;13.408;2023-03-04T01:49:15;25.17;;;8.60;;
1412;SDS011;701;52.526;13.408;2023-03-04T01:51:42;28.35;;;8.18;;
1412;SDS011;701;52.526;13.408;2023-03-04T01:54:10;27.33;;;8.73;;
1412;SDS011;701;52.526;13.408;2023-03-04T01:56:38;25.85;;;7.25;;
1412;SDS011;701;52.526;13.408;2023-03-04T02:01:39;32.03;;;7.25;;
1412;SDS011;701;52.526;13.408;2023-03-04T02:04:10;25.50;;;7.43;;
1412;SDS011;701;52.526;13.408;2023-03-04T02:06:36;28.33;;;7.40;;
1412;SDS011;701;52.526;13.408;2023-03-04T02:09:05;23.00;;;6.55;;
1412;SDS011;701;52.526;13.408;2023-03-04T02:11:31;28.00;;;7.35;;
1412;SDS011;701;52.526;13.408;2023-03-04T02:13:58;23.85;;;7.13;;
1412;SDS011;701;52.526;13.408;2023-03-04T02:16:24;25.77;;;6.45;;
1412;SDS011;701;52.526;13.408;2023-03-04T02:18:50;23.10;;;6.53;;
1412;SDS011;701;52.526;13.408;2023-03-04T02:21:26;23.83;;;6.78;;
1412;SDS011;701;52.526;13.408;2023-03-04T02:24:14;25.20;;;6.43;;
1412;SDS011;701;52.526;13.408;2023-03-04T02:26:41;26.63;;;6.47;;
1412;SDS011;701;52.526;13.408;2023-03-04T02:29:10;30.50;;;7.00;;
1412;SDS011;701;52.526;13.408;2023-03-04T02:31:39;17.67;;;5.47;;
1412;SDS011;701;52.526;13.408;2023-03-04T02:34:11;23.45;;;5.93;;
1412;SDS011;701;52.526;13.408;2023-03-04T02:36:39;23.42;;;6.25;;
1412;SDS011;701;52.526;13.408;2023-03-04T02:41:48;19.77;;;5.77;;
1412;SDS011;701;52.526;13.408;2023-03-04T02:44:20;23.27;;;6.03;;
1412;SDS011;701;52.526;13.408;2023-03-04T02:46:50;22.65;;;5.68;;
1412;SDS011;701;52.526;13.408;2023-03-04T02:49:16;18.48;;;5.65;;
1412;SDS011;701;52.526;13.408;2023-03-04T02:51:43;24.35;;;5.88;;
1412;SDS011;701;52.526;13.408;2023-03-04T02:54:15;22.50;;;5.53;;
1412;SDS011;701;52.526;13.408;2023-03-04T02:56:49;22.85;;;5.03;;
1412;SDS011;701;52.526;13.408;2023-03-04T02:59:19;22.73;;;5.53;;
1412;SDS011;701;52.526;13.408;2023-03-04T03:01:46;22.60;;;5.55;;
1412;SDS011;701;52.526;13.408;2023-03-04T03:04:13;19.02;;;5.50;;
1412;SDS011;701;52.526;13.408;2023-03-04T03:06:40;22.40;;;6.00;;
1412;SDS011;701;52.526;13.408;2023-03-04T03:09:06;22.98;;;6.28;;
1412;SDS011;701;52.526;13.408;2023-03-04T03:11:32;21.42;;;5.13;;
1412;SDS011;701;52.526;13.408;2023-03-04T03:13:58;23.13;;;5.60;;
1412;SDS011;701;52.526;13.408;2023-03-04T03:16:24;20.83;;;5.32;;
1412;SDS011;701;52.526;13.408;2023-03-04T03:18:50;23.83;;;5.38;;
1412;SDS011;701;52.526;13.408;2023-03-04T03:21:16;18.42;;;5.18;;
1412;SDS011;701;52.526;13.408;2023-03-04T03:23:43;18.63;;;4.77;;
1412;SDS011;701;52.526;13.408;2023-03-04T03:26:08;21.77;;;5.20;;
1412;SDS011;701;52.526;13.408;2023-03-04T03:28:34;23.88;;;5.72;;
1412;SDS011;701;52.526;13.408;2023-03-04T03:31:00;23.75;;;5.22;;
1412;SDS011;701;52.526;13.408;2023-03-04T03:33:26;18.85;;;5.18;;
1412;SDS011;701;52.526;13.408;2023-03-04T03:35:52;24.20;;;5.03;;
1412;SDS011;701;52.526;13.408;2023-03-04T03:38:18;17.70;;;4.40;;
1412;SDS011;701;52.526;13.408;2023-03-04T03:40:43;18.15;;;4.60;;
1412;SDS011;701;52.526;13.408;2023-03-04T03:43:09;20.73;;;4.70;;
1412;SDS011;701;52.526;13.408;2023-03-04T03:45:35;20.42;;;4.70;;
1412;SDS011;701;52.526;13.408;2023-03-04T03:48:01;15.55;;;4.38;;
1412;SDS011;701;52.526;13.408;2023-03-04T03:50:27;23.85;;;4.30;;
1412;SDS011;701;52.526;13.408;2023-03-04T03:52:53;19.23;;;4.10;;
1412;SDS011;701;52.526;13.408;2023-03-04T03:55:20;18.98;;;4.28;;
1412;SDS011;701;52.526;13.408;2023-03-04T03:57:46;18.25;;;4.03;;
1412;SDS011;701;52.526;13.408;2023-03-04T04:00:12;12.32;;;4.03;;
1412;SDS011;701;52.526;13.408;2023-03-04T04:02:39;23.37;;;4.20;;
1412;SDS011;701;52.526;13.408;2023-03-04T04:05:05;20.35;;;4.35;;
1412;SDS011;701;52.526;13.408;2023-03-04T04:07:32;16.45;;;4.25;;
1412;SDS011;701;52.526;13.408;2023-03-04T04:09:57;21.33;;;4.13;;
1412;SDS011;701;52.526;13.408;2023-03-04T04:12:23;19.60;;;4.47;;
1412;SDS011;701;52.526;13.408;2023-03-04T04:14:49;19.48;;;4.30;;
1412;SDS011;701;52.526;13.408;2023-03-04T04:17:15;15.93;;;3.57;;
1412;SDS011;701;52.526;13.408;2023-03-04T04:19:41;19.73;;;4.15;;
1412;SDS011;701;52.526;13.408;2023-03-04T04:22:08;16.10;;;3.97;;
1412;SDS011;701;52.526;13.408;2023-03-04T04:24:39;17.75;;;3.88;;
1412;SDS011;701;52.526;13.408;2023-03-04T04:27:04;19.27;;;3.58;;
1412;SDS011;701;52.526;13.408;2023-03-04T04:29:30;17.30;;;4.10;;
1412;SDS011;701;52.526;13.408;2023-03-04T04:31:56;13.98;;;3.47;;
1412;SDS011;701;52.526;13.408;2023-03-04T04:34:22;14.05;;;3.58;;
1412;SDS011;701;52.526;13.408;2023-03-04T04:36:48;18.80;;;3.67;;
1412;SDS011;701;52.526;13.408;2023-03-04T04:39:13;14.18;;;3.58;;
1412;SDS011;701;52.526;13.408;2023-03-04T04:41:40;19.23;;;3.53;;
1412;SDS011;701;52.526;13.408;2023-03-04T04:44:07;21.00;;;3.72;;
1412;SDS011;701;52.526;13.408;2023-03-04T04:46:34;18.35;;;3.75;;
1412;SDS011;701;52.526;13.408;2023-03-04T04:49:00;15.10;;;3.47;;
1412;SDS011;701;52.526;13.408;2023-03-04T04:51:26;15.75;;;3.42;;
1412;SDS011;701;52.526;13.408;2023-03-04T04:53:52;16.48;;;2.97;;
1412;SDS011;701;52.526;13.408;2023-03-04T04:56:19;12.63;;;2.90;;
1412;SDS011;701;52.526;13.408;2023-03-04T04:58:46;17.38;;;3.58;;
1412;SDS011;701;52.526;13.408;2023-03-04T05:01:13;11.82;;;3.00;;
1412;SDS011;701;52.526;13.408;2023-03-04T05:03:39;14.43;;;3.47;;
1412;SDS011;701;52.526;13.408;2023-03-04T05:06:06;16.67;;;3.05;;
1412;SDS011;701;52.526;13.408;2023-03-04T05:08:33;11.48;;;2.70;;
1412;SDS011;701;52.526;13.408;2023-03-04T05:10:59;13.07;;;2.63;;
1412;SDS011;701;52.526;13.408;2023-03-04T05:13:26;11.60;;;2.80;;
1412;SDS011;701;52.526;13.408;2023-03-04T05:15:52;13.63;;;2.80;;
1412;SDS011;701;52.526;13.408;2023-03-04T05:18:20;13.57;;;3.20;;
1412;SDS011;701;52.526;13.408;2023-03-04T05:20:52;16.92;;;3.00;;
1412;SDS011;701;52.526;13.408;2023-03-04T05:23:20;13.57;;;2.50;;
1412;SDS011;701;52.526;13.408;2023-03-04T05:25:46;17.00;;;2.72;;
1412;SDS011;701;52.526;13.408;2023-03-04T05:28:12;19.87;;;2.87;;
1412;SDS011;701;52.526;13.408;2023-03-04T05:30:39;15.07;;;2.90;;
1412;SDS011;701;52.526;13.408;2023-03-04T05:33:06;13.55;;;3.20;;
1412;SDS011;701;52.526;13.408;2023-03-04T05:35:35;12.60;;;2.80;;
1412;SDS011;701;52.526;13.408;2023-03-04T05:38:03;14.05;;;3.08;;
1412;SDS011;701;52.526;13.408;2023-03-04T05:40:29;13.10;;;3.10;;
1412;SDS011;701;52.526;13.408;2023-03-04T05:42:55;15.30;;;3.05;;
1412;SDS011;701;52.526;13.408;2023-03-04T05:45:23;15.02;;;3.30;;
1412;SDS011;701;52.526;13.408;2023-03-04T05:47:49;17.02;;;2.80;;
1412;SDS011;701;52.526;13.408;2023-03-04T05:50:15;12.47;;;2.87;;
1412;SDS011;701;52.526;13.408;2023-03-04T05:52:41;12.95;;;2.63;;
1412;SDS011;701;52.526;13.408;2023-03-04T05:55:07;13.15;;;2.40;;
1412;SDS011;701;52.526;13.408;2023-03-04T05:57:33;11.70;;;2.38;;
1412;SDS011;701;52.526;13.408;2023-03-04T05:59:59;15.00;;;2.87;;
1412;SDS011;701;52.526;13.408;2023-03-04T06:02:25;10.55;;;2.85;;
1412;SDS011;701;52.526;13.408;2023-03-04T06:04:50;18.47;;;2.67;;
1412;SDS011;701;52.526;13.408;2023-03-04T06:07:16;17.33;;;2.95;;
1412;SDS011;701;52.526;13.408;2023-03-04T06:09:42;10.77;;;2.50;;
1412;SDS011;701;52.526;13.408;2023-03-04T06:12:11;14.55;;;2.60;;
1412;SDS011;701;52.526;13.408;2023-03-04T06:14:37;18.05;;;2.75;;
1412;SDS011;701;52.526;13.408;2023-03-04T06:17:03;12.40;;;2.40;;
1412;SDS011;701;52.526;13.408;2023-03-04T06:19:28;12.30;;;2.58;;
1412;SDS011;701;52.526;13.408;2023-03-04T06:21:54;11.20;;;2.43;;
1412;SDS011;701;52.526;13.408;2023-03-04T06:24:20;13.88;;;2.70;;
1412;SDS011;701;52.526;13.408;2023-03-04T06:26:46;16.02;;;3.13;;
1412;SDS011;701;52.526;13.408;2023-03-04T06:29:11;14.70;;;2.40;;
1412;SDS011;701;52.526;13.408;2023-03-04T06:31:37;13.05;;;2.50;;
1412;SDS011;701;52.526;13.408;2023-03-04T06:34:05;15.97;;;2.87;;
1412;SDS011;701;52.526;13.408;2023-03-04T06:36:32;13.10;;;2.42;;
1412;SDS011;701;52.526;13.408;2023-03-04T06:38:57;10.32;;;2.72;;
1412;SDS011;701;52.526;13.408;2023-03-04T06:41:23;11.43;;;2.43;;
1412;SDS011;701;52.526;13.408;2023-03-04T06:43:52;10.18;;;2.35;;
1412;SDS011;701;52.526;13.408;2023-03-04T06:46:18;12.70;;;2.47;;
1412;SDS011;701;52.526;13.408;2023-03-04T06:48:44;13.70;;;2.80;;
1412;SDS011;701;52.526;13.408;2023-03-04T06:51:11;14.83;;;2.93;;
1412;SDS011;701;52.526;13.408;2023-03-04T06:53:38;12.70;;;2.60;;
1412;SDS011;701;52.526;13.408;2023-03-04T06:56:04;10.57;;;2.50;;
1412;SDS011;701;52.526;13.408;2023-03-04T06:58:31;13.25;;;2.63;;
1412;SDS011;701;52.526;13.408;2023-03-04T07:00:57;14.15;;;2.85;;
1412;SDS011;701;52.526;13.408;2023-03-04T07:03:33;13.20;;;2.50;;
1412;SDS011;701;52.526;13.408;2023-03-04T07:05:58;9.18;;;2.30;;
1412;SDS011;701;52.526;13.408;2023-03-04T07:08:24;10.20;;;2.60;;
1412;SDS011;701;52.526;13.408;2023-03-04T07:10:50;11.63;;;2.47;;
1412;SDS011;701;52.526;13.408;2023-03-04T07:13:15;11.93;;;3.90;;
1412;SDS011;701;52.526;13.408;2023-03-04T07:15:44;14.27;;;3.17;;
1412;SDS011;701;52.526;13.408;2023-03-04T07:18:13;13.30;;;2.83;;
1412;SDS011;701;52.526;13.408;2023-03-04T07:20:39;12.90;;;2.63;;
1412;SDS011;701;52.526;13.408;2023-03-04T07:23:04;11.97;;;2.73;;
1412;SDS011;701;52.526;13.408;2023-03-04T07:25:30;9.80;;;3.45;;
1412;SDS011;701;52.526;13.408;2023-03-04T07:27:56;12.83;;;3.47;;
1412;SDS011;701;52.526;13.408;2023-03-04T07:30:22;8.68;;;3.00;;
1412;SDS011;701;52.526;13.408;2023-03-04T07:32:47;9.13;;;3.17;;
1412;SDS011;701;52.526;13.408;2023-03-04T07:35:13;7.00;;;2.47;;
1412;SDS011;701;52.526;13.408;2023-03-04T07:37:39;14.50;;;2.65;;
1412;SDS011;701;52.526;13.408;2023-03-04T07:40:05;13.60;;;2.67;;
1412;SDS011;701;52.526;13.408;2023-03-04T07:42:32;14.90;;;2.90;;
1412;SDS011;701;52.526;13.408;2023-03-04T07:45:04;14.10;;;3.03;;
1412;SDS011;701;52.526;13.408;2023-03-04T07:47:32;10.98;;;2.50;;
1412;SDS011;701;52.526;13.408;2023-03-04T07:49:57;11.53;;;3.10;;
1412;SDS011;701;52.526;13.408;2023-03-04T07:52:23;12.18;;;2.65;;
1412;SDS011;701;52.526;13.408;2023-03-04T07:54:49;9.57;;;2.83;;
1412;SDS011;701;52.526;13.408;2023-03-04T07:57:15;12.77;;;3.05;;
1412;SDS011;701;52.526;13.408;2023-03-04T07:59:40;11.53;;;3.00;;
1412;SDS011;701;52.526;13.408;2023-03-04T08:02:06;8.48;;;2.47;;
1412;SDS011;701;52.526;13.408;2023-03-04T08:04:32;9.20;;;2.33;;
1412;SDS011;701;52.526;13.408;2023-03-04T08:06:58;7.85;;;2.42;;
1412;SDS011;701;52.526;13.408;2023-03-04T08:09:23;7.20;;;2.40;;
1412;SDS011;701;52.526;13.408;2023-03-04T08:11:49;10.07;;;2.35;;
1412;SDS011;701;52.526;13.408;2023-03-04T08:14:15;12.03;;;2.80;;
1412;SDS011;701;52.526;13.408;2023-03-04T08:16:41;7.53;;;1.88;;
1412;SDS011;701;52.526;13.408;2023-03-04T08:19:06;8.63;;;2.17;;
1412;SDS011;701;52.526;13.408;2023-03-04T08:21:33;10.67;;;2.73;;
1412;SDS011;701;52.526;13.408;2023-03-04T08:23:59;7.68;;;2.13;;
1412;SDS011;701;52.526;13.408;2023-03-04T08:26:32;5.78;;;1.98;;
1412;SDS011;701;52.526;13.408;2023-03-04T08:29:03;7.93;;;2.25;;
1412;SDS011;701;52.526;13.408;2023-03-04T08:31:30;11.68;;;2.30;;
1412;SDS011;701;52.526;13.408;2023-03-04T08:33:55;8.17;;;2.17;;
1412;SDS011;701;52.526;13.408;2023-03-04T08:36:21;8.02;;;2.85;;
1412;SDS011;701;52.526;13.408;2023-03-04T08:38:47;8.45;;;2.60;;
1412;SDS011;701;52.526;13.408;2023-03-04T08:41:13;13.07;;;2.10;;
1412;SDS011;701;52.526;13.408;2023-03-04T08:43:39;8.63;;;2.08;;
1412;SDS011;701;52.526;13.408;2023-03-04T08:46:05;8.70;;;2.22;;
1412;SDS011;701;52.526;13.408;2023-03-04T08:48:32;8.63;;;2.00;;
1412;SDS011;701;52.526;13.408;2023-03-04T08:50:58;8.73;;;2.00;;
1412;SDS011;701;52.526;13.408;2023-03-04T08:53:24;12.05;;;2.33;;
1412;SDS011;701;52.526;13.408;2023-03-04T08:55:50;9.60;;;2.20;;
1412;SDS011;701;52.526;13.408;2023-03-04T08:58:17;6.60;;;1.55;;
1412;SDS011;701;52.526;13.408;2023-03-04T09:00:45;12.63;;;1.88;;
1412;SDS011;701;52.526;13.408;2023-03-04T09:03:15;10.75;;;1.92;;
1412;SDS011;701;52.526;13.408;2023-03-04T09:05:44;9.63;;;1.73;;
1412;SDS011;701;52.526;13.408;2023-03-04T09:08:11;8.82;;;1.63;;
1412;SDS011;701;52.526;13.408;2023-03-04T09:10:37;12.10;;;1.67;;
1412;SDS011;701;52.526;13.408;2023-03-04T09:13:04;11.45;;;1.80;;
1412;SDS011;701;52.526;13.408;2023-03-04T09:15:30;10.25;;;1.90;;
1412;SDS011;701;52.526;13.408;2023-03-04T09:18:00;10.05;;;1.80;;
1412;SDS011;701;52.526;13.408;2023-03-04T09:20:27;8.93;;;1.63;;
1412;SDS011;701;52.526;13.408;2023-03-04T09:22:53;10.90;;;1.85;;
1412;SDS011;701;52.526;13.408;2023-03-04T09:25:20;12.23;;;1.98;;
1412;SDS011;701;52.526;13.408;2023-03-04T09:27:45;7.72;;;1.95;;
1412;SDS011;701;52.526;13.408;2023-03-04T09:30:11;10.52;;;1.70;;
1412;SDS011;701;52.526;13.408;2023-03-04T09:32:37;8.18;;;1.40;;
1412;SDS011;701;52.526;13.408;2023-03-04T09:35:05;11.82;;;1.85;;
1412;SDS011;701;52.526;13.408;2023-03-04T09:37:31;9.33;;;1.67;;
1412;SDS011;701;52.526;13.408;2023-03-04T09:39:57;8.98;;;1.65;;
1412;SDS011;701;52.526;13.408;2023-03-04T09:42:56;12.20;;;1.50;;
1412;SDS011;701;52.526;13.408;2023-03-04T09:45:20;10.93;;;1.50;;
1412;SDS011;701;52.526;13.408;2023-03-04T09:47:50;9.45;;;1.63;;
1412;SDS011;701;52.526;13.408;2023-03-04T09:50:18;8.23;;;1.30;;
1412;SDS011;701;52.526;13.408;2023-03-04T09:57:55;9.17;;;1.63;;
1412;SDS011;701;52.526;13.408;2023-03-04T10:00:42;10.02;;;1.83;;
1412;SDS011;701;52.526;13.408;2023-03-04T10:05:45;9.07;;;1.63;;
1412;SDS011;701;52.526;13.408;2023-03-04T10:11:04;10.20;;;1.60;;
1412;SDS011;701;52.526;13.408;2023-03-04T10:13:39;11.68;;;1.40;;
1412;SDS011;701;52.526;13.408;2023-03-04T10:16:07;11.05;;;1.73;;
1412;SDS011;701;52.526;13.408;2023-03-04T10:18:40;11.60;;;1.40;;
1412;SDS011;701;52.526;13.408;2023-03-04T10:21:19;15.07;;;5.07;;
1412;SDS011;701;52.526;13.408;2023-03-04T10:23:59;11.00;;;2.27;;
1412;SDS011;701;52.526;13.408;2023-03-04T10:26:29;13.02;;;1.83;;
1412;SDS011;701;52.526;13.408;2023-03-04T10:28:57;12.30;;;1.95;;
1412;SDS011;701;52.526;13.408;2023-03-04T10:31:33;10.82;;;1.67;;
1412;SDS011;701;52.526;13.408;2023-03-04T10:34:04;10.68;;;2.20;;
1412;SDS011;701;52.526;13.408;2023-03-04T10:39:11;15.73;;;3.00;;
1412;SDS011;701;52.526;13.408;2023-03-04T10:41:44;14.10;;;3.70;;
1412;SDS011;701;52.526;13.408;2023-03-04T10:44:19;16.65;;;2.33;;
1412;SDS011;701;52.526;13.408;2023-03-04T10:46:45;13.30;;;2.20;;
1412;SDS011;701;52.526;13.408;2023-03-04T10:49:14;21.95;;;5.70;;
1412;SDS011;701;52.526;13.408;2023-03-04T10:51:49;17.67;;;6.00;;
1412;SDS011;701;52.526;13.408;2023-03-04T10:57:15;11.68;;;2.70;;
1412;SDS011;701;52.526;13.408;2023-03-04T10:59:46;16.30;;;2.85;;
1412;SDS011;701;52.526;13.408;2023-03-04T11:02:34;12.63;;;2.28;;
1412;SDS011;701;52.526;13.408;2023-03-04T11:10:21;14.80;;;2.25;;
1412;SDS011;701;52.526;13.408;2023-03-04T11:13:17;17.63;;;2.45;;
1412;SDS011;701;52.526;13.408;2023-03-04T11:18:16;14.27;;;2.55;;
1412;SDS011;701;52.526;13.408;2023-03-04T11:21:11;17.80;;;2.58;;
1412;SDS011;701;52.526;13.408;2023-03-04T11:23:45;12.73;;;2.20;;
1412;SDS011;701;52.526;13.408;2023-03-04T11:26:26;14.63;;;2.40;;
1412;SDS011;701;52.526;13.408;2023-03-04T11:29:10;16.38;;;2.53;;
1412;SDS011;701;52.526;13.408;2023-03-04T11:32:09;13.32;;;2.00;;
1412;SDS011;701;52.526;13.408;2023-03-04T11:34:45;14.30;;;2.10;;
1412;SDS011;701;52.526;13.408;2023-03-04T11:37:29;15.63;;;2.25;;
1412;SDS011;701;52.526;13.408;2023-03-04T11:40:04;18.15;;;2.42;;
1412;SDS011;701;52.526;13.408;2023-03-04T11:42:36;17.13;;;2.75;;
1412;SDS011;701;52.526;13.408;2023-03-04T11:45:04;14.80;;;2.40;;
1412;SDS011;701;52.526;13.408;2023-03-04T11:55:49;18.85;;;2.72;;
1412;SDS011;701;52.526;13.408;2023-03-04T12:04:02;20.07;;;2.83;;
1412;SDS011;701;52.526;13.408;2023-03-04T12:27:06;19.13;;;2.90;;
1412;SDS011;701;52.526;13.408;2023-03-04T12:29:55;14.18;;;2.58;;
1412;SDS011;701;52.526;13.408;2023-03-04T12:32:35;11.85;;;2.42;;
1412;SDS011;701;52.526;13.408;2023-03-04T12:40:26;15.13;;;2.88;;
1412;SDS011;701;52.526;13.408;2023-03-04T12:43:30;21.95;;;3.17;;
1412;SDS011;701;52.526;13.408;2023-03-04T12:46:16;17.10;;;2.75;;
1412;SDS011;701;52.526;13.408;2023-03-04T12:49:13;12.85;;;2.38;;
1412;SDS011;701;52.526;13.408;2023-03-04T12:54:26;11.23;;;2.53;;
1412;SDS011;701;52.526;13.408;2023-03-04T12:59:21;12.23;;;2.60;;
1412;SDS011;701;52.526;13.408;2023-03-04T13:04:29;18.08;;;2.28;;
1412;SDS011;701;52.526;13.408;2023-03-04T13:07:19;15.73;;;2.30;;
1412;SDS011;701;52.526;13.408;2023-03-04T13:10:10;12.30;;;2.15;;
1412;SDS011;701;52.526;13.408;2023-03-04T13:12:49;14.50;;;2.25;;
1412;SDS011;701;52.526;13.408;2023-03-04T13:15:26;11.57;;;2.50;;
1412;SDS011;701;52.526;13.408;2023-03-04T13:20:40;15.32;;;2.17;;
1412;SDS011;701;52.526;13.408;2023-03-04T13:28:28;12.68;;;1.88;;
1412;SDS011;701;52.526;13.408;2023-03-04T13:43:42;12.82;;;2.38;;
1412;SDS011;701;52.526;13.408;2023-03-04T13:56:34;14.93;;;2.90;;
1412;SDS011;701;52.526;13.408;2023-03-04T14:01:36;16.13;;;2.30;;
1412;SDS011;701;52.526;13.408;2023-03-04T14:06:49;23.13;;;2.75;;
1412;SDS011;701;52.526;13.408;2023-03-04T14:09:30;15.18;;;2.55;;
1412;SDS011;701;52.526;13.408;2023-03-04T14:11:58;17.38;;;2.70;;
1412;SDS011;701;52.526;13.408;2023-03-04T14:17:21;12.48;;;2.60;;
1412;SDS011;701;52.526;13.408;2023-03-04T14:19:54;19.73;;;3.17;;
1412;SDS011;701;52.526;13.408;2023-03-04T14:22:21;16.98;;;3.05;;
1412;SDS011;701;52.526;13.408;2023-03-04T14:25:22;12.93;;;2.33;;
1412;SDS011;701;52.526;13.408;2023-03-04T14:27:42;16.90;;;2.88;;
1412;SDS011;701;52.526;13.408;2023-03-04T14:30:25;23.90;;;3.13;;
1412;SDS011;701;52.526;13.408;2023-03-04T14:32:52;15.57;;;2.78;;
1412;SDS011;701;52.526;13.408;2023-03-04T14:35:21;20.35;;;3.10;;
1412;SDS011;701;52.526;13.408;2023-03-04T14:40:21;16.65;;;2.72;;
1412;SDS011;701;52.526;13.408;2023-03-04T14:42:54;18.73;;;2.67;;
1412;SDS011;701;52.526;13.408;2023-03-04T14:45:25;16.55;;;2.47;;
1412;SDS011;701;52.526;13.408;2023-03-04T14:47:53;14.43;;;2.35;;
1412;SDS011;701;52.526;13.408;2023-03-04T14:50:22;13.10;;;2.27;;
1412;SDS011;701;52.526;13.408;2023-03-04T14:52:48;12.20;;;2.22;;
1412;SDS011;701;52.526;13.408;2023-03-04T14:55:27;15.73;;;2.75;;
1412;SDS011;701;52.526;13.408;2023-03-04T14:57:54;16.00;;;2.67;;
1412;SDS011;701;52.526;13.408;2023-03-04T15:00:31;13.35;;;2.15;;
1412;SDS011;701;52.526;13.408;2023-03-04T15:03:02;18.20;;;2.88;;
1412;SDS011;701;52.526;13.408;2023-03-04T15:05:43;23.92;;;3.15;;
1412;SDS011;701;52.526;13.408;2023-03-04T15:08:22;20.67;;;3.28;;
1412;SDS011;701;52.526;13.408;2023-03-04T15:10:52;18.02;;;4.20;;
1412;SDS011;701;52.526;13.408;2023-03-04T15:13:39;21.88;;;3.13;;
1412;SDS011;701;52.526;13.408;2023-03-04T15:16:07;17.30;;;2.75;;
1412;SDS011;701;52.526;13.408;2023-03-04T15:18:34;19.05;;;2.88;;
1412;SDS011;701;52.526;13.408;2023-03-04T15:21:04;14.10;;;2.80;;
1412;SDS011;701;52.526;13.408;2023-03-04T15:23:50;17.58;;;2.60;;
1412;SDS011;701;52.526;13.408;2023-03-04T15:26:16;13.63;;;2.28;;
1412;SDS011;701;52.526;13.408;2023-03-04T15:28:42;14.50;;;2.27;;
1412;SDS011;701;52.526;13.408;2023-03-04T15:31:18;12.73;;;1.58;;
1412;SDS011;701;52.526;13.408;2023-03-04T15:33:45;14.32;;;2.35;;
1412;SDS011;701;52.526;13.408;2023-03-04T15:36:13;18.57;;;2.43;;
1412;SDS011;701;52.526;13.408;2023-03-04T15:38:45;14.85;;;2.40;;
1412;SDS011;701;52.526;13.408;2023-03-04T15:41:19;10.35;;;2.30;;
1412;SDS011;701;52.526;13.408;2023-03-04T15:43:48;15.48;;;2.03;;
1412;SDS011;701;52.526;13.408;2023-03-04T15:46:14;16.88;;;2.55;;
1412;SDS011;701;52.526;13.408;2023-03-04T15:48:39;14.63;;;2.50;;
1412;SDS011;701;52.526;13.408;2023-03-04T15:51:08;17.40;;;2.47;;
1412;SDS011;701;52.526;13.408;2023-03-04T15:53:49;14.25;;;2.50;;
1412;SDS011;701;52.526;13.408;2023-03-04T15:56:21;15.07;;;2.43;;
1412;SDS011;701;52.526;13.408;2023-03-04T15:58:58;15.57;;;2.45;;
1412;SDS011;701;52.526;13.408;2023-03-04T16:01:25;14.30;;;2.50;;
1412;SDS011;701;52.526;13.408;2023-03-04T16:03:51;18.00;;;2.95;;
1412;SDS011;701;52.526;13.408;2023-03-04T16:06:18;20.35;;;2.72;;
1412;SDS011;701;52.526;13.408;2023-03-04T16:08:45;15.30;;;2.17;;
1412;SDS011;701;52.526;13.408;2023-03-04T16:11:14;19.08;;;3.03;;
1412;SDS011;701;52.526;13.408;2023-03-04T16:13:44;18.88;;;2.58;;
1412;SDS011;701;52.526;13.408;2023-03-04T16:16:10;14.63;;;2.85;;
1412;SDS011;701;52.526;13.408;2023-03-04T16:18:37;21.13;;;2.90;;
1412;SDS011;701;52.526;13.408;2023-03-04T16:21:03;13.85;;;2.20;;
1412;SDS011;701;52.526;13.408;2023-03-04T16:23:29;15.43;;;2.30;;
1412;SDS011;701;52.526;13.408;2023-03-04T16:26:02;14.98;;;2.58;;
1412;SDS011;701;52.526;13.408;2023-03-04T16:28:28;16.30;;;2.40;;
1412;SDS011;701;52.526;13.408;2023-03-04T16:30:54;18.25;;;2.22;;
1412;SDS011;701;52.526;13.408;2023-03-04T16:33:20;17.77;;;2.35;;
1412;SDS011;701;52.526;13.408;2023-03-04T16:35:46;15.57;;;2.50;;
1412;SDS011;701;52.526;13.408;2023-03-04T16:38:22;13.43;;;2.40;;
1412;SDS011;701;52.526;13.408;2023-03-04T16:40:51;12.10;;;1.97;;
1412;SDS011;701;52.526;13.408;2023-03-04T16:43:17;18.35;;;2.70;;
1412;SDS011;701;52.526;13.408;2023-03-04T16:45:43;14.27;;;2.20;;
1412;SDS011;701;52.526;13.408;2023-03-04T16:48:09;21.33;;;4.10;;
1412;SDS011;701;52.526;13.408;2023-03-04T16:50:35;16.47;;;2.23;;
1412;SDS011;701;52.526;13.408;2023-03-04T16:53:02;11.57;;;2.05;;
1412;SDS011;701;52.526;13.408;2023-03-04T16:55:29;15.88;;;2.53;;
1412;SDS011;701;52.526;13.408;2023-03-04T16:57:56;16.13;;;2.35;;
1412;SDS011;701;52.526;13.408;2023-03-04T17:00:23;14.27;;;2.35;;
1412;SDS011;701;52.526;13.408;2023-03-04T17:02:55;16.30;;;3.83;;
1412;SDS011;701;52.526;13.408;2023-03-04T17:05:23;19.05;;;3.88;;
1412;SDS011;701;52.526;13.408;2023-03-04T17:07:51;11.88;;;2.20;;
1412;SDS011;701;52.526;13.408;2023-03-04T17:10:17;13.35;;;2.50;;